Monongahela, Pennsylvania
Current Conditions -  °F | °C
As of 4:53 PM on Thursday 23 Oct 2014 (Local Time) from KAGC Reporting Station
Clear Clear  
Wind Chill: 60°   Ceiling: Unl
Heat Index: 60°   Visibility: 10mi
Dew Point: 39°   Wind: 14mph
Humidity: 46%   Direction: 320°NW
Pressure: 30.03"   Gusts: 23mph
Location:  40.2°N, 79.93°W
Report Text: KAGC 232053Z 32012G20KT 10SM CLR 16/04 A3003 RMK AO2 SLP175 T01560039 56010
Loading
Personal Weather Stations






























Interactive Weather Map
Tropical Storm Tracking
New forecast layout! Learn more

10-Day Weather Forecast

Advertisements
Track Severe Weather on mobile